createdAt,value
2022-08-26T00:01:56.080Z,98151.28
2022-08-26T00:04:25.073Z,98150.09
2022-08-26T00:06:52.677Z,98148.91
2022-08-26T00:09:19.309Z,98145.22
2022-08-26T00:11:46.148Z,98154.03
2022-08-26T00:14:16.171Z,98155.28
2022-08-26T00:16:48.252Z,98149.94
2022-08-26T00:19:18.112Z,98150.28
2022-08-26T00:21:46.542Z,98146.22
2022-08-26T00:24:16.096Z,98143.59
2022-08-26T00:26:42.961Z,98147.06
2022-08-26T00:29:09.727Z,98144.25
2022-08-26T00:31:37.536Z,98147.56
2022-08-26T00:34:05.678Z,98152.94
2022-08-26T00:36:32.586Z,98156.38
2022-08-26T00:38:59.374Z,98150.94
2022-08-26T00:41:26.441Z,98149.13
2022-08-26T00:43:54.167Z,98144.88
2022-08-26T00:46:25.313Z,98141.63
2022-08-26T00:49:12.198Z,98148.13
2022-08-26T00:51:55.022Z,98154.72
2022-08-26T00:54:27.360Z,98153.41
2022-08-26T00:57:05.140Z,98153.72
2022-08-26T00:59:36.210Z,98151.94
2022-08-26T01:02:06.321Z,98154.94
2022-08-26T01:04:36.717Z,98156.16
2022-08-26T01:07:04.144Z,98151.03
2022-08-26T01:09:32.276Z,98143.25
2022-08-26T01:12:01.811Z,98144.69
2022-08-26T01:14:33.934Z,98144.34
2022-08-26T01:17:06.241Z,98148.13
2022-08-26T01:19:46.102Z,98146.97
2022-08-26T01:22:28.757Z,98141.25
2022-08-26T01:24:58.643Z,98146.06
2022-08-26T01:27:32.620Z,98143.88
2022-08-26T01:30:01.640Z,98156.06
2022-08-26T01:32:29.648Z,98153.53
2022-08-26T01:34:57.220Z,98148.97
2022-08-26T01:37:27.563Z,98141.91
2022-08-26T01:39:56.554Z,98134.59
2022-08-26T01:42:26.996Z,98138.00
2022-08-26T01:45:04.106Z,98137.19
2022-08-26T01:47:35.514Z,98143.25
2022-08-26T01:50:09.467Z,98141.81
2022-08-26T01:52:39.524Z,98150.03
2022-08-26T01:55:06.912Z,98147.25
2022-08-26T01:57:34.537Z,98154.09
2022-08-26T02:00:05.121Z,98161.06
2022-08-26T02:02:40.808Z,98158.19
2022-08-26T02:05:15.050Z,98163.13
2022-08-26T02:07:43.114Z,98159.41
2022-08-26T02:10:11.049Z,98156.34
2022-08-26T02:12:39.095Z,98153.06
2022-08-26T02:15:09.766Z,98152.09
2022-08-26T02:17:43.027Z,98147.81
2022-08-26T02:20:14.931Z,98145.13
2022-08-26T02:22:45.231Z,98157.63
2022-08-26T02:25:23.969Z,98154.38
2022-08-26T02:27:51.407Z,98158.28
2022-08-26T02:30:21.938Z,98148.59
2022-08-26T02:32:49.787Z,98146.91
2022-08-26T02:35:20.058Z,98137.69
2022-08-26T02:37:49.358Z,98141.16
2022-08-26T02:40:21.450Z,98138.06
2022-08-26T02:42:49.073Z,98143.41
2022-08-26T02:45:16.722Z,98141.84
2022-08-26T02:47:51.439Z,98141.56
2022-08-26T02:50:19.516Z,98138.19
2022-08-26T02:52:48.263Z,98132.16
2022-08-26T02:55:15.003Z,98132.16
2022-08-26T02:57:41.602Z,98132.50
2022-08-26T03:00:11.230Z,98131.16
2022-08-26T03:02:37.938Z,98127.88
2022-08-26T03:05:05.392Z,98127.25
2022-08-26T03:07:31.948Z,98120.38
2022-08-26T03:09:58.782Z,98113.69
2022-08-26T03:12:25.816Z,98114.00
2022-08-26T03:14:53.161Z,98110.88
2022-08-26T03:17:21.107Z,98115.81
2022-08-26T03:19:50.743Z,98097.88
2022-08-26T03:22:20.512Z,98107.47
2022-08-26T03:24:47.163Z,98110.84
2022-08-26T03:27:14.388Z,98105.28
2022-08-26T03:30:00.129Z,98105.41
2022-08-26T03:32:26.936Z,98101.19
2022-08-26T03:34:54.254Z,98103.06
2022-08-26T03:37:21.639Z,98111.56
2022-08-26T03:39:49.272Z,98106.00
2022-08-26T03:42:16.089Z,98098.94
2022-08-26T03:44:42.821Z,98098.72
2022-08-26T03:47:10.894Z,98092.16
2022-08-26T03:49:38.035Z,98101.44
2022-08-26T03:52:05.098Z,98091.81
2022-08-26T03:54:32.674Z,98096.22
2022-08-26T03:56:59.322Z,98096.69
2022-08-26T03:59:26.820Z,98100.28
2022-08-26T04:01:54.521Z,98101.41
2022-08-26T04:04:22.714Z,98096.81
2022-08-26T04:06:50.275Z,98099.09
2022-08-26T04:09:20.971Z,98101.66
2022-08-26T04:11:50.365Z,98101.34
2022-08-26T04:14:20.427Z,98107.25
2022-08-26T04:16:47.986Z,98106.78
2022-08-26T04:19:15.608Z,98108.81
2022-08-26T04:21:43.387Z,98103.38
2022-08-26T04:24:12.970Z,98105.69
2022-08-26T04:26:42.816Z,98106.53
2022-08-26T04:29:17.660Z,98112.91
2022-08-26T04:31:45.252Z,98110.66
2022-08-26T04:34:11.964Z,98113.09
2022-08-26T04:36:41.099Z,98113.59
2022-08-26T04:39:11.993Z,98116.69
2022-08-26T04:41:40.067Z,98107.22
2022-08-26T04:44:07.187Z,98111.53
2022-08-26T04:46:34.255Z,98111.53
2022-08-26T04:49:01.871Z,98108.09
2022-08-26T04:51:28.646Z,98110.84
2022-08-26T04:53:57.019Z,98102.66
2022-08-26T04:56:26.569Z,98106.84
2022-08-26T04:58:53.543Z,98105.88
2022-08-26T05:01:20.904Z,98107.03
2022-08-26T05:03:48.242Z,98111.50
2022-08-26T05:06:15.866Z,98110.69
2022-08-26T05:08:45.677Z,98102.00
2022-08-26T05:11:12.370Z,98109.63
2022-08-26T05:13:39.278Z,98102.63
2022-08-26T05:16:09.807Z,98096.56
2022-08-26T05:18:39.946Z,98101.03
2022-08-26T05:21:07.455Z,98099.91
2022-08-26T05:23:36.073Z,98103.66
2022-08-26T05:26:08.228Z,98094.50
2022-08-26T05:28:35.666Z,98106.91
2022-08-26T05:31:15.761Z,98097.25
2022-08-26T05:33:44.906Z,98092.44
2022-08-26T05:36:16.048Z,98098.44
2022-08-26T05:38:42.916Z,98098.13
2022-08-26T05:41:19.859Z,98108.06
2022-08-26T05:43:46.620Z,98104.63
2022-08-26T05:46:14.008Z,98115.88
2022-08-26T05:48:41.419Z,98108.94
2022-08-26T05:51:11.977Z,98107.66
2022-08-26T05:53:40.646Z,98110.72
2022-08-26T05:56:12.286Z,98114.19
2022-08-26T05:58:41.242Z,98107.78
2022-08-26T06:01:10.542Z,98115.78
2022-08-26T06:03:39.890Z,98112.81
2022-08-26T06:06:09.864Z,98118.69
2022-08-26T06:08:38.127Z,98119.31
2022-08-26T06:11:18.395Z,98120.78
2022-08-26T06:13:45.818Z,98120.59
2022-08-26T06:16:17.903Z,98117.00
2022-08-26T06:18:45.747Z,98122.38
2022-08-26T06:21:12.467Z,98117.22
2022-08-26T06:23:58.153Z,98129.34
2022-08-26T06:26:26.164Z,98120.53
2022-08-26T06:28:53.211Z,98131.41
2022-08-26T06:31:19.973Z,98128.66
2022-08-26T06:33:46.612Z,98136.25
2022-08-26T06:36:21.904Z,98127.88
2022-08-26T06:38:51.966Z,98129.31
2022-08-26T06:41:23.752Z,98128.59
2022-08-26T06:43:52.346Z,98132.88
2022-08-26T06:46:21.548Z,98133.13
2022-08-26T06:48:48.803Z,98125.72
2022-08-26T06:51:24.700Z,98137.50
2022-08-26T06:53:53.302Z,98134.22
2022-08-26T06:56:24.471Z,98126.09
2022-08-26T06:58:51.997Z,98129.53
2022-08-26T07:01:22.338Z,98130.97
2022-08-26T07:03:51.322Z,98120.75
2022-08-26T07:06:19.795Z,98126.59
2022-08-26T07:08:51.466Z,98117.19
2022-08-26T07:11:19.461Z,98121.34
2022-08-26T07:13:46.801Z,98120.19
2022-08-26T07:16:16.401Z,98109.88
2022-08-26T07:18:44.828Z,98106.06
2022-08-26T07:21:15.215Z,98107.78
2022-08-26T07:23:42.279Z,98113.31
2022-08-26T07:26:19.466Z,98107.88
2022-08-26T07:28:50.517Z,98109.03
2022-08-26T07:31:22.410Z,98110.66
2022-08-26T07:33:49.696Z,98092.84
2022-08-26T07:36:19.326Z,98098.09
2022-08-26T07:38:48.094Z,98110.31
2022-08-26T07:41:16.964Z,98101.22
2022-08-26T07:43:43.932Z,98103.31
2022-08-26T07:46:14.531Z,98090.38
2022-08-26T07:48:46.226Z,98089.63
2022-08-26T07:51:17.896Z,98089.75
2022-08-26T07:53:48.097Z,98089.00
2022-08-26T07:56:21.875Z,98081.63
2022-08-26T07:58:51.792Z,98078.69
2022-08-26T08:01:26.807Z,98075.66
2022-08-26T08:03:54.792Z,98078.50
2022-08-26T08:06:27.388Z,98074.44
2022-08-26T08:08:56.254Z,98070.63
2022-08-26T08:11:27.107Z,98064.00
2022-08-26T08:13:56.759Z,98065.72
2022-08-26T08:16:28.342Z,98064.00
2022-08-26T08:18:59.485Z,98060.63
2022-08-26T08:21:27.911Z,98058.38
2022-08-26T08:23:57.236Z,98060.38
2022-08-26T08:26:25.274Z,98061.44
2022-08-26T08:28:55.201Z,98057.22
2022-08-26T08:31:54.423Z,98053.84
2022-08-26T08:34:12.916Z,98049.53
2022-08-26T08:36:39.804Z,98052.19
2022-08-26T08:39:07.132Z,98056.47
2022-08-26T08:42:04.924Z,98052.59
2022-08-26T08:44:32.854Z,98045.31
2022-08-26T08:47:12.046Z,98047.19
2022-08-26T08:49:38.965Z,98042.16
2022-08-26T08:52:13.788Z,98052.53
2022-08-26T08:54:40.562Z,98050.53
2022-08-26T08:57:12.831Z,98049.34
2022-08-26T08:59:53.307Z,98045.72
2022-08-26T09:02:46.586Z,98045.53
2022-08-26T09:05:24.195Z,98044.34
2022-08-26T09:08:19.868Z,98050.28
2022-08-26T09:10:46.568Z,98040.63
2022-08-26T09:13:17.029Z,98045.09
2022-08-26T09:15:55.171Z,98037.63
2022-08-26T09:18:34.353Z,98035.22
2022-08-26T09:21:05.484Z,98027.72
2022-08-26T09:23:35.800Z,98034.44
2022-08-26T09:26:15.013Z,98024.56
2022-08-26T09:28:47.074Z,98020.94
2022-08-26T09:31:23.381Z,98020.75
2022-08-26T09:34:06.798Z,98021.38
2022-08-26T09:36:41.399Z,98021.19
2022-08-26T09:39:27.537Z,98024.03
2022-08-26T09:42:23.592Z,98015.72
2022-08-26T09:44:58.166Z,98008.00
2022-08-26T09:47:34.473Z,98002.75
2022-08-26T09:50:10.968Z,97997.06
2022-08-26T09:52:40.532Z,97998.28
2022-08-26T09:55:09.556Z,97990.94
2022-08-26T09:57:45.819Z,97972.69
2022-08-26T10:00:38.584Z,97985.47
2022-08-26T10:03:23.885Z,97983.47
2022-08-26T10:05:59.375Z,97975.53
2022-08-26T10:08:36.156Z,97986.84
2022-08-26T10:11:11.503Z,97981.34
2022-08-26T10:13:43.284Z,97979.72
2022-08-26T10:16:23.793Z,97982.16
2022-08-26T10:19:00.600Z,97983.13
2022-08-26T10:21:37.601Z,97969.91
2022-08-26T10:24:07.592Z,97965.44
2022-08-26T10:27:05.771Z,97963.94
2022-08-26T10:29:44.100Z,97963.47
2022-08-26T10:32:16.198Z,97966.28
2022-08-26T10:34:43.829Z,97966.28
2022-08-26T10:37:18.022Z,97970.28
2022-08-26T10:40:07.702Z,97964.22
2022-08-26T10:42:46.181Z,97962.53
2022-08-26T10:45:16.688Z,97959.25
2022-08-26T10:47:46.306Z,97963.84
2022-08-26T10:50:14.915Z,97959.53
2022-08-26T10:52:50.768Z,97950.41
2022-08-26T10:55:43.192Z,97949.13
2022-08-26T10:58:31.136Z,97940.25
2022-08-26T11:01:33.365Z,97938.09
2022-08-26T11:04:24.610Z,97935.97
2022-08-26T11:07:30.311Z,97936.31
2022-08-26T11:10:07.462Z,97930.22
2022-08-26T11:12:37.238Z,97927.69
2022-08-26T11:15:29.482Z,97921.34
2022-08-26T11:18:02.353Z,97920.75
2022-08-26T11:20:47.149Z,97914.94
2022-08-26T11:23:14.385Z,97918.56
2022-08-26T11:25:56.338Z,97916.97
2022-08-26T11:28:39.884Z,97912.16
2022-08-26T11:31:26.713Z,97906.72
2022-08-26T11:34:13.974Z,97903.34
2022-08-26T11:36:56.157Z,97908.69
2022-08-26T11:39:36.608Z,97915.44
2022-08-26T11:42:20.217Z,97902.66
2022-08-26T11:44:49.081Z,97910.28
2022-08-26T11:47:24.969Z,97900.13
2022-08-26T11:50:06.543Z,97891.50
2022-08-26T11:52:33.238Z,97898.13
2022-08-26T11:55:05.014Z,97895.44
2022-08-26T11:57:36.024Z,97894.25
2022-08-26T12:00:04.730Z,97895.94
2022-08-26T12:02:33.477Z,97880.47
2022-08-26T12:05:02.125Z,97885.19
2022-08-26T12:07:30.221Z,97883.91
2022-08-26T12:10:02.118Z,97884.00
2022-08-26T12:12:35.048Z,97889.22
2022-08-26T12:15:16.406Z,97884.13
2022-08-26T12:17:45.221Z,97890.41
2022-08-26T12:20:31.477Z,97888.00
2022-08-26T12:23:00.748Z,97885.25
2022-08-26T12:25:28.069Z,97887.41
2022-08-26T12:28:05.576Z,97886.06
2022-08-26T12:30:32.349Z,97883.81
2022-08-26T12:33:22.768Z,97884.03
2022-08-26T12:35:54.766Z,97885.28
2022-08-26T12:38:25.371Z,97872.63
2022-08-26T12:40:52.429Z,97884.97
2022-08-26T12:43:38.185Z,97886.00
2022-08-26T12:46:06.759Z,97886.22
2022-08-26T12:48:37.291Z,97876.81
2022-08-26T12:51:07.664Z,97872.34
2022-08-26T12:53:41.538Z,97868.91
2022-08-26T12:56:38.947Z,97871.44
2022-08-26T12:59:19.701Z,97867.19
2022-08-26T13:01:47.044Z,97863.78
2022-08-26T13:04:34.554Z,97858.53
2022-08-26T13:07:27.174Z,97861.81
2022-08-26T13:09:56.796Z,97855.53
2022-08-26T13:12:29.637Z,97852.56
2022-08-26T13:14:58.732Z,97842.88
2022-08-26T13:17:26.859Z,97847.19
2022-08-26T13:19:53.653Z,97845.97
2022-08-26T13:22:27.047Z,97845.81
2022-08-26T13:24:56.632Z,97847.19
2022-08-26T13:27:26.306Z,97838.63
2022-08-26T13:29:55.055Z,97833.53
2022-08-26T13:32:27.575Z,97834.03
2022-08-26T13:34:57.423Z,97837.47
2022-08-26T13:37:35.270Z,97831.75
2022-08-26T13:40:07.478Z,97830.06
2022-08-26T13:42:34.716Z,97822.53
2022-08-26T13:45:01.560Z,97823.94
2022-08-26T13:47:29.318Z,97818.88
2022-08-26T13:49:57.295Z,97812.22
2022-08-26T13:52:30.259Z,97811.25
2022-08-26T13:55:00.088Z,97796.69
2022-08-26T13:57:28.326Z,97804.25
2022-08-26T13:59:57.130Z,97804.19
2022-08-26T14:02:23.844Z,97799.63
2022-08-26T14:04:50.646Z,97797.47
2022-08-26T14:07:17.518Z,97791.81
2022-08-26T14:09:44.351Z,97782.28
2022-08-26T14:12:10.901Z,97784.69
2022-08-26T14:14:37.512Z,97784.69
2022-08-26T14:17:04.257Z,97779.75
2022-08-26T14:19:31.456Z,97783.81
2022-08-26T14:22:00.576Z,97777.19
2022-08-26T14:24:27.603Z,97776.47
2022-08-26T14:26:54.157Z,97780.47
2022-08-26T14:29:20.927Z,97776.16
2022-08-26T14:31:48.411Z,97776.03
2022-08-26T14:34:15.515Z,97767.19
2022-08-26T14:36:42.385Z,97770.03
2022-08-26T14:39:11.632Z,97784.09
2022-08-26T14:41:54.093Z,97777.72
2022-08-26T14:44:25.913Z,97776.41
2022-08-26T14:46:54.446Z,97785.47
2022-08-26T14:49:23.465Z,97770.91
2022-08-26T14:51:50.378Z,97772.38
2022-08-26T14:54:18.662Z,97779.06
2022-08-26T14:57:06.069Z,97773.38
2022-08-26T14:59:36.253Z,97774.22
2022-08-26T15:02:04.117Z,97770.75
2022-08-26T15:04:30.881Z,97772.59
2022-08-26T15:06:59.558Z,97763.69
2022-08-26T15:09:29.054Z,97767.31
2022-08-26T15:11:56.370Z,97764.88
2022-08-26T15:14:23.411Z,97765.59
2022-08-26T15:16:51.981Z,97759.53
2022-08-26T15:19:19.538Z,97771.88
2022-08-26T15:21:47.300Z,97764.38
2022-08-26T15:24:16.261Z,97773.09
2022-08-26T15:26:43.415Z,97775.81
2022-08-26T15:29:10.160Z,97783.50
2022-08-26T15:31:37.022Z,97775.19
2022-08-26T15:34:14.604Z,97776.38
2022-08-26T15:36:45.857Z,97771.16
2022-08-26T15:39:13.097Z,97759.25
2022-08-26T15:41:39.760Z,97763.53
2022-08-26T15:44:08.137Z,97762.91
2022-08-26T15:46:36.423Z,97761.69
2022-08-26T15:49:05.627Z,97766.75
2022-08-26T15:51:45.791Z,97768.63
2022-08-26T15:54:13.657Z,97766.56
2022-08-26T15:56:40.345Z,97765.97
2022-08-26T15:59:08.000Z,97773.69
2022-08-26T16:01:35.411Z,97767.16
2022-08-26T16:04:03.222Z,97756.63
2022-08-26T16:06:32.601Z,97758.84
2022-08-26T16:08:59.309Z,97757.84
2022-08-26T16:11:26.596Z,97760.28
2022-08-26T16:13:53.385Z,97759.03
2022-08-26T16:16:21.381Z,97754.22
2022-08-26T16:18:48.587Z,97761.94
2022-08-26T16:21:17.259Z,97760.75
2022-08-26T16:23:45.000Z,97762.41
2022-08-26T16:26:17.684Z,97762.41
2022-08-26T16:28:44.750Z,97759.41
2022-08-26T16:31:12.156Z,97751.91
2022-08-26T16:33:38.960Z,97757.13
2022-08-26T16:36:06.831Z,97751.47
2022-08-26T16:38:35.753Z,97764.66
2022-08-26T16:41:02.384Z,97758.34
2022-08-26T16:43:29.275Z,97770.38
2022-08-26T16:45:56.706Z,97771.81
2022-08-26T16:48:23.714Z,97770.22
2022-08-26T16:50:51.529Z,97769.66
2022-08-26T16:53:18.910Z,97770.47
2022-08-26T16:55:50.158Z,97778.78
2022-08-26T16:58:17.619Z,97770.66
2022-08-26T17:00:45.162Z,97757.31
2022-08-26T17:03:11.937Z,97779.78
2022-08-26T17:05:39.173Z,97782.47
2022-08-26T17:08:06.164Z,97754.16
2022-08-26T17:10:33.753Z,97779.06
2022-08-26T17:13:00.739Z,97766.47
2022-08-26T17:15:27.375Z,97774.38
2022-08-26T17:17:54.816Z,97779.06
2022-08-26T17:20:23.316Z,97780.72
2022-08-26T17:22:51.957Z,97775.88
2022-08-26T17:25:27.427Z,97770.84
2022-08-26T17:30:26.518Z,97778.53
2022-08-26T17:32:54.409Z,97786.44
2022-08-26T17:35:21.700Z,97784.38
2022-08-26T17:37:48.375Z,97795.16
2022-08-26T17:40:21.622Z,97795.13
2022-08-26T17:42:48.570Z,97796.13
2022-08-26T17:45:15.790Z,97796.34
2022-08-26T17:47:43.435Z,97799.41
2022-08-26T17:50:14.937Z,97802.28
2022-08-26T17:52:43.911Z,97798.47
2022-08-26T17:55:12.621Z,97799.06
2022-08-26T17:57:40.761Z,97805.78
2022-08-26T18:00:14.313Z,97813.25
2022-08-26T18:02:41.167Z,97806.38
2022-08-26T18:05:09.491Z,97805.75
2022-08-26T18:07:43.521Z,97809.00
2022-08-26T18:10:13.508Z,97816.91
2022-08-26T18:12:41.666Z,97816.13
2022-08-26T18:15:10.276Z,97808.44
2022-08-26T18:17:39.104Z,97809.84
2022-08-26T18:20:12.636Z,97799.31
2022-08-26T18:22:39.748Z,97801.31
2022-08-26T18:25:07.911Z,97803.34
2022-08-26T18:27:36.137Z,97803.97
2022-08-26T18:30:10.502Z,97806.41
2022-08-26T18:32:39.156Z,97796.47
2022-08-26T18:35:06.214Z,97821.16
2022-08-26T18:37:34.170Z,97813.69
2022-08-26T18:40:00.951Z,97817.34
2022-08-26T18:42:28.749Z,97789.19
2022-08-26T18:44:55.323Z,97809.84
2022-08-26T18:47:22.746Z,97808.44
2022-08-26T18:49:49.342Z,97819.16
2022-08-26T18:52:15.975Z,97811.47
2022-08-26T18:54:43.277Z,97814.09
2022-08-26T18:57:11.369Z,97814.91
2022-08-26T18:59:38.278Z,97809.84
2022-08-26T19:02:05.368Z,97813.25
2022-08-26T19:04:32.250Z,97805.78
2022-08-26T19:06:58.867Z,97799.09
2022-08-26T19:09:28.469Z,97802.09
2022-08-26T19:14:28.761Z,97809.78
2022-08-26T19:16:55.522Z,97804.88
2022-08-26T19:19:25.616Z,97815.00
2022-08-26T19:21:53.128Z,97816.00
2022-08-26T19:24:21.130Z,97820.69
2022-08-26T19:26:57.518Z,97811.38
2022-08-26T19:29:26.990Z,97825.97
2022-08-26T19:31:53.659Z,97823.91
2022-08-26T19:34:20.931Z,97828.41
2022-08-26T19:36:48.162Z,97829.22
2022-08-26T19:39:14.890Z,97821.13
2022-08-26T19:41:41.792Z,97830.38
2022-08-26T19:44:33.805Z,97827.34
2022-08-26T19:47:01.345Z,97822.91
2022-08-26T19:49:27.922Z,97828.88
2022-08-26T19:51:54.525Z,97831.44
2022-08-26T19:54:22.730Z,97815.59
2022-08-26T19:56:49.855Z,97823.94
2022-08-26T19:59:17.469Z,97831.00
2022-08-26T20:01:44.544Z,97823.56
2022-08-26T20:04:11.147Z,97826.94
2022-08-26T20:06:38.863Z,97833.84
2022-08-26T20:09:05.774Z,97827.16
2022-08-26T20:11:32.689Z,97827.75
2022-08-26T20:13:59.715Z,97827.91
2022-08-26T20:16:26.424Z,97829.97
2022-08-26T20:19:11.563Z,97826.53
2022-08-26T20:21:39.954Z,97836.59
2022-08-26T20:24:15.926Z,97840.81
2022-08-26T20:26:44.531Z,97845.06
2022-08-26T20:29:13.665Z,97846.84
2022-08-26T20:31:40.875Z,97846.56
2022-08-26T20:34:07.595Z,97838.41
2022-08-26T20:36:34.518Z,97831.06
2022-08-26T20:39:01.323Z,97835.94
2022-08-26T20:41:30.419Z,97842.44
2022-08-26T20:44:00.421Z,97840.50
2022-08-26T20:46:37.159Z,97834.22
2022-08-26T20:49:14.145Z,97839.63
2022-08-26T20:51:47.343Z,97839.75
2022-08-26T20:54:14.016Z,97838.47
2022-08-26T20:56:43.318Z,97837.22
2022-08-26T20:59:10.415Z,97845.38
2022-08-26T21:01:42.283Z,97842.91
2022-08-26T21:04:15.445Z,97844.50
2022-08-26T21:06:43.798Z,97845.34
2022-08-26T21:09:16.633Z,97848.84
2022-08-26T21:11:44.729Z,97851.03
2022-08-26T21:14:16.871Z,97847.41
2022-08-26T21:16:46.053Z,97845.38
2022-08-26T21:19:15.301Z,97844.47
2022-08-26T21:21:42.303Z,97853.66
2022-08-26T21:24:09.359Z,97850.94
2022-08-26T21:26:36.915Z,97863.78
2022-08-26T21:29:04.496Z,97861.34
2022-08-26T21:31:32.034Z,97866.53
2022-08-26T21:33:59.258Z,97853.22
2022-08-26T21:36:26.481Z,97859.69
2022-08-26T21:38:56.154Z,97851.72
2022-08-26T21:41:23.403Z,97858.13
2022-08-26T21:43:53.500Z,97856.66
2022-08-26T21:46:22.498Z,97870.22
2022-08-26T21:48:51.916Z,97867.88
2022-08-26T21:51:21.772Z,97868.25
2022-08-26T21:53:48.549Z,97864.59
2022-08-26T21:56:18.214Z,97867.56
2022-08-26T21:58:45.705Z,97861.94
2022-08-26T22:01:19.696Z,97867.34
2022-08-26T22:03:47.552Z,97868.22
2022-08-26T22:06:19.257Z,97870.34
2022-08-26T22:08:45.990Z,97867.59
2022-08-26T22:11:13.213Z,97863.13
2022-08-26T22:13:42.044Z,97868.59
2022-08-26T22:16:09.930Z,97860.84
2022-08-26T22:18:37.639Z,97862.13
2022-08-26T22:21:07.532Z,97850.03
2022-08-26T22:23:35.557Z,97866.56
2022-08-26T22:26:02.893Z,97867.19
2022-08-26T22:28:29.661Z,97866.00
2022-08-26T22:30:56.837Z,97871.94
2022-08-26T22:33:24.698Z,97870.94
2022-08-26T22:35:52.715Z,97875.09
2022-08-26T22:38:20.536Z,97872.88
2022-08-26T22:40:50.434Z,97873.94
2022-08-26T22:43:19.014Z,97873.16
2022-08-26T22:45:47.999Z,97880.84
2022-08-26T22:48:24.058Z,97878.03
2022-08-26T22:50:54.496Z,97882.47
2022-08-26T22:53:23.806Z,97876.00
2022-08-26T22:55:50.482Z,97874.41
2022-08-26T22:58:18.598Z,97875.28
2022-08-26T23:00:46.538Z,97875.06
2022-08-26T23:03:14.850Z,97873.25
2022-08-26T23:05:42.855Z,97869.38
2022-08-26T23:08:12.195Z,97869.75
2022-08-26T23:10:41.896Z,97872.56
2022-08-26T23:13:08.863Z,97871.09
2022-08-26T23:15:36.493Z,97868.41
2022-08-26T23:18:04.050Z,97870.91
2022-08-26T23:20:30.919Z,97868.81
2022-08-26T23:22:58.626Z,97871.53
2022-08-26T23:25:25.909Z,97873.94
2022-08-26T23:27:52.772Z,97867.06
2022-08-26T23:30:24.174Z,97864.81
2022-08-26T23:32:51.581Z,97867.06
2022-08-26T23:35:21.454Z,97862.66
2022-08-26T23:37:53.717Z,97857.59
2022-08-26T23:40:25.472Z,97852.03
2022-08-26T23:42:54.626Z,97846.03
2022-08-26T23:45:22.498Z,97843.84
2022-08-26T23:47:50.587Z,97846.28
2022-08-26T23:50:22.759Z,97846.53
2022-08-26T23:53:08.724Z,97847.88
2022-08-26T23:55:39.082Z,97846.88
2022-08-26T23:58:06.469Z,97836.09
